EKCHURMM

Guest
Details From EKCH - Kastrup
To URMM - Mineralnyye Vody
Flight Number -
Tags Generated
Created
Modified
Stats Distance 1,345 nm / 2,492 km
Max Altitude 0 ft / 0 m
Waypoints 8
Social Downloads 2
Likes 0
Share VATSIM

Download

Looking for another format? Having issues loading an existing format? Contact us
Advertisement - Login to hide

Notes

Generated

Route

EKCH R1850 NELIM NANIR TP KENEN MD URMM

ID Type Via Altitude Latitude Longitude Leg Dist Tot Dist Heading (true) Name
O EKCH APT - 0 ft / 0 m 55.62761˚ 12.62973˚ - 0 nm - -
R1850 FIX - 0 ft / 0 m 54.37127˚ 18.49172˚ 215 nm 215 nm 108° / 113° -
NELIM FIX - 0 ft / 0 m 52.94333˚ 24.16500˚ 219 nm 434 nm 111° / 115° -
NANIR FIX - 0 ft / 0 m 50.83311˚ 30.25987˚ 258 nm 693 nm 117° / 122° -
TP NDB - 0 ft / 0 m 48.93981˚ 34.79333˚ 208 nm 902 nm 121° / 125° TOPCHYNE NDB
KENEN FIX - 0 ft / 0 m 46.88000˚ 38.75667˚ 201 nm 1104 nm 126° / 129° -
MD NDB - 0 ft / 0 m 44.25833˚ 43.00833˚ 238 nm 1342 nm 130° / 133° MINERALNYYE VODY NDB
O URMM APT - 0 ft / 0 m 44.23442˚ 43.06126˚ 2 nm 1345 nm 122° / 122° -

Altitude Profile

Advertisement - Login to hide

Weather


0- 5 10 15 20 25 30 35+ Temperature / ° C

Clouds and Precipitation
Forecast for 2017-12-15 12:00 UTC. Updated an hour ago

Ground ~20,000 ft ~40,000 ft Winds

EKCH

Details ICAO EKCH (CPH)
Name Kastrup
Region Denmark / Faroe Islands
Timezone Europe/Copenhagen (UTC+1.0)
Stats Elevation 17 ft / 5 m (AMSL)
Location 55.612915° 12.640961°
Runways 3
Magnetic Variation 3.724° E

METAR

EKCH 150950Z 25010KT 9999 FEW012 BKN024 04/02 Q0991 TEMPO BKN012

Decode

TAF

Not found

Departure Runways

ID Width Length Bearing (true) Bearing (mag) Surface Threshold Offset Overrun Length
04L 148 ft / 45 m 11,848 ft / 3,611 m 41.15° 37.43° Asphalt 0 ft / 0 m 0 ft / 0 m
04R 148 ft / 45 m 10,814 ft / 3,296 m 41.15° 37.43° Asphalt 0 ft / 0 m 0 ft / 0 m
12 148 ft / 45 m 10,047 ft / 3,063 m 123.21° 119.49° Asphalt 2,313 ft / 705 m 0 ft / 0 m
22L 148 ft / 45 m 10,814 ft / 3,296 m 221.17° 217.45° Asphalt 0 ft / 0 m 0 ft / 0 m
22R 148 ft / 45 m 11,848 ft / 3,611 m 221.18° 217.46° Asphalt 2,018 ft / 615 m 0 ft / 0 m
30 148 ft / 45 m 10,047 ft / 3,063 m 303.25° 299.53° Asphalt 886 ft / 270 m 0 ft / 0 m

URMM

Details ICAO URMM (MRV)
Name MINERALNYYE VODY
Region Russia
Timezone Europe/Moscow (UTC+3.0)
Stats Elevation 1,054 ft / 321 m (AMSL)
Location 44.225073° 43.081891°
Runways 1
Magnetic Variation 7.387° E

METAR

URMM 151000Z VRB01MPS 9999 OVC009 04/02 Q1018 R12/090070 NOSIG RMK MT OBSC QFE735/0980

Decode

TAF

TAF URMM 150758Z 1509/1609 11003G08MPS 9999 OVC011 TX06/1512Z TNM00/1603Z TEMPO 1509/1606 3100 BR OVC006

Decode

Destination Runways

ID Width Length Bearing (true) Bearing (mag) Surface Threshold Offset Overrun Length
12 197 ft / 60 m 12,766 ft / 3,891 m 122.28° 114.89° Concrete 0 ft / 0 m 240 ft / 73 m
30 197 ft / 60 m 12,766 ft / 3,891 m 302.31° 294.92° Concrete 0 ft / 0 m 250 ft / 76 m